Time;durP1;ratioP1;P1;durP2;ratioP2;P2;SDS_P1;SDS_P2;PMS_P1;PMS_P2;Temp;Humidity;BMP_temperature;BMP_pressure;BME280_temperature;BME280_humidity;BME280_pressure;Samples;Min_cycle;Max_cycle;Signal;HPM_P1;HPM_P2
2022/02/06 00:02:06;;;;;;;5.32;1.15;;;;;;;5.73;99.91;100134.34;5231781;28;20078;-78
2022/02/06 00:04:36;;;;;;;6.03;1.23;;;;;;;5.61;100.00;100113.06;5230807;28;20033;-78
2022/02/06 00:07:06;;;;;;;6.07;1.30;;;;;;;5.54;100.00;100122.69;5231693;28;20020;-78
2022/02/06 00:09:37;;;;;;;5.80;1.08;;;;;;;5.58;100.00;100123.50;5231323;28;20036;-78
2022/02/06 00:12:08;;;;;;;4.68;1.50;;;;;;;5.58;100.00;100107.94;5226823;28;20475;-78
2022/02/06 00:14:39;;;;;;;6.03;1.40;;;;;;;5.55;100.00;100113.19;5231260;28;20032;-79
2022/02/06 00:17:09;;;;;;;3.75;1.40;;;;;;;5.47;100.00;100115.09;5230762;28;20025;-78
2022/02/06 00:19:42;;;;;;;4.28;1.30;;;;;;;5.43;100.00;100113.47;5230921;28;20041;-78
2022/02/06 00:22:25;;;;;;;4.35;1.30;;;;;;;5.49;100.00;100097.78;5224120;28;20444;-79
2022/02/06 00:33:17;;;;;;;2.90;1.10;;;;;;;5.28;100.00;100077.53;5226187;28;20122;-79
2022/02/06 00:39:03;;;;;;;4.80;1.30;;;;;;;5.16;100.00;100066.59;5217541;28;20248;-80
2022/02/06 00:41:35;;;;;;;5.13;1.13;;;;;;;5.16;100.00;100067.44;5223405;28;20120;-79
2022/02/06 00:44:07;;;;;;;3.90;1.52;;;;;;;5.10;100.00;100056.34;5226692;28;20079;-79
2022/02/06 00:46:39;;;;;;;3.30;1.20;;;;;;;5.14;100.00;100051.09;5223681;28;20376;-79
2022/02/06 00:49:16;;;;;;;5.30;1.40;;;;;;;5.10;100.00;100044.28;5229782;28;20025;-80
2022/02/06 00:54:35;;;;;;;4.18;1.38;;;;;;;5.11;100.00;100047.75;5222369;28;20036;-78
2022/02/06 00:57:06;;;;;;;3.22;1.00;;;;;;;5.04;100.00;100048.75;5224457;28;20474;-79
2022/02/06 00:59:36;;;;;;;4.55;1.10;;;;;;;5.01;100.00;100046.22;5225650;28;20044;-80
2022/02/06 01:02:07;;;;;;;3.65;1.20;;;;;;;5.07;100.00;100036.59;5227901;28;20024;-79
2022/02/06 01:04:37;;;;;;;6.63;1.20;;;;;;;5.06;100.00;100032.28;5221756;28;20558;-80
2022/02/06 01:07:07;;;;;;;2.50;1.08;;;;;;;5.11;100.00;100027.84;5228767;28;20028;-79
2022/02/06 01:09:37;;;;;;;7.05;1.30;;;;;;;5.04;100.00;100023.72;5223431;28;20461;-78
2022/02/06 01:12:08;;;;;;;3.50;1.13;;;;;;;5.09;100.00;100019.28;5229012;28;20171;-79
2022/02/06 01:15:00;;;;;;;3.65;0.93;;;;;;;5.04;100.00;100021.13;5232024;28;20192;-80
2022/02/06 01:20:39;;;;;;;5.28;1.15;;;;;;;5.02;100.00;100019.44;5212502;28;20518;-79
2022/02/06 01:24:16;;;;;;;4.95;1.20;;;;;;;5.01;100.00;100021.16;5221165;28;20111;-79
2022/02/06 01:26:19;;;;;;;3.55;0.98;;;;;;;5.06;100.00;100006.41;5217161;28;20275;-79
2022/02/06 01:28:56;;;;;;;4.07;1.10;;;;;;;5.05;100.00;99996.94;5229038;28;20032;-79
2022/02/06 01:34:00;;;;;;;3.15;1.13;;;;;;;5.08;100.00;99989.09;5232137;28;20025;-80
2022/02/06 01:39:11;;;;;;;5.68;1.10;;;;;;;4.95;100.00;99968.69;5230287;28;20029;-79
2022/02/06 01:41:45;;;;;;;2.65;1.02;;;;;;;4.87;100.00;99963.69;5231406;28;20039;-79
2022/02/06 01:44:28;;;;;;;2.15;0.90;;;;;;;4.90;100.00;99949.81;5229717;28;20071;-79
2022/02/06 02:01:24;;;;;;;3.33;1.00;;;;;;;4.83;100.00;99910.28;5229730;28;20072;-79
2022/02/06 02:04:26;;;;;;;3.30;0.90;;;;;;;4.87;100.00;99909.34;5224852;28;20116;-79
2022/02/06 02:07:17;;;;;;;4.18;1.20;;;;;;;4.76;100.00;99900.97;5227231;28;20021;-79
2022/02/06 02:10:08;;;;;;;4.38;1.25;;;;;;;4.85;100.00;99902.47;5229941;28;20040;-79
2022/02/06 02:16:10;;;;;;;4.20;0.90;;;;;;;4.80;100.00;99896.56;5228408;28;20029;-79
2022/02/06 02:26:59;;;;;;;3.95;1.10;;;;;;;4.82;100.00;99869.75;5221259;28;20044;-80
2022/02/06 02:43:49;;;;;;;3.38;1.02;;;;;;;5.11;100.00;99820.69;5231891;28;20047;-79
2022/02/06 02:46:24;;;;;;;4.20;0.82;;;;;;;5.11;100.00;99822.47;5230904;28;20033;-79
2022/02/06 02:48:56;;;;;;;2.97;0.82;;;;;;;5.07;100.00;99806.13;5227368;28;20075;-80
2022/02/06 02:51:31;;;;;;;2.83;0.95;;;;;;;5.14;100.00;99799.06;5230833;28;20100;-80
2022/02/06 02:54:08;;;;;;;3.78;0.90;;;;;;;5.17;100.00;99801.56;5222108;28;20139;-79
2022/02/06 02:56:48;;;;;;;1.77;0.82;;;;;;;5.18;100.00;99795.50;5232925;28;20429;-79
2022/02/06 02:59:26;;;;;;;2.65;1.13;;;;;;;5.26;100.00;99783.19;5230430;28;20041;-80
2022/02/06 03:01:59;;;;;;;2.83;1.08;;;;;;;5.30;100.00;99775.28;5227031;28;20483;-79
2022/02/06 03:04:29;;;;;;;3.03;1.05;;;;;;;5.31;100.00;99777.00;5233665;28;20039;-79
2022/02/06 03:07:00;;;;;;;3.38;0.90;;;;;;;5.22;100.00;99769.47;5231030;28;20390;-80
2022/02/06 03:09:36;;;;;;;5.72;1.13;;;;;;;5.15;100.00;99759.34;5234005;28;20406;-80
2022/02/06 03:12:07;;;;;;;5.80;1.05;;;;;;;5.14;100.00;99753.28;5232237;28;20290;-79
2022/02/06 03:14:43;;;;;;;2.67;0.80;;;;;;;5.24;100.00;99753.88;5232586;28;20062;-79
2022/02/06 03:17:22;;;;;;;4.72;1.10;;;;;;;5.22;100.00;99741.00;5233132;28;20031;-79
2022/02/06 03:20:04;;;;;;;4.13;1.58;;;;;;;5.26;100.00;99742.59;5230478;28;20060;-80
2022/02/06 03:22:48;;;;;;;4.65;0.98;;;;;;;5.28;100.00;99745.13;5225971;28;20025;-79
2022/02/06 03:25:21;;;;;;;6.25;1.00;;;;;;;5.29;100.00;99733.91;5226579;28;20495;-79
2022/02/06 03:27:52;;;;;;;2.90;0.93;;;;;;;5.33;100.00;99726.00;5233312;28;20495;-80
2022/02/06 03:30:23;;;;;;;4.20;1.00;;;;;;;5.29;100.00;99729.56;5226422;28;20052;-79
2022/02/06 03:32:55;;;;;;;3.22;0.70;;;;;;;5.25;100.00;99722.78;5233997;28;20020;-80
2022/02/06 03:35:26;;;;;;;4.13;1.08;;;;;;;5.32;100.00;99723.47;5230666;28;20090;-79
2022/02/06 03:37:56;;;;;;;3.20;0.82;;;;;;;5.36;100.00;99718.13;5233278;28;20024;-80
2022/02/06 03:40:29;;;;;;;3.67;1.10;;;;;;;5.39;100.00;99710.28;5230782;28;20315;-80
2022/02/06 03:45:53;;;;;;;2.70;1.00;;;;;;;5.29;100.00;99701.06;5231174;28;20311;-79
2022/02/06 03:48:32;;;;;;;2.78;1.00;;;;;;;5.33;100.00;99700.09;5225964;28;20028;-79
2022/02/06 03:51:06;;;;;;;4.63;0.98;;;;;;;5.33;100.00;99696.66;5232760;28;20386;-79
2022/02/06 03:53:39;;;;;;;2.00;0.80;;;;;;;5.36;100.00;99702.59;5222836;28;20398;-79
2022/02/06 03:56:11;;;;;;;3.22;1.00;;;;;;;5.34;100.00;99688.00;5222053;28;20017;-81
2022/02/06 03:58:41;;;;;;;2.88;1.00;;;;;;;5.40;100.00;99680.91;5231299;28;20039;-79
2022/02/06 04:01:12;;;;;;;3.33;0.75;;;;;;;5.35;100.00;99680.16;5230934;28;20036;-79
2022/02/06 04:03:42;;;;;;;2.90;0.88;;;;;;;5.44;100.00;99682.50;5232526;28;20410;-80
2022/02/06 04:06:13;;;;;;;3.13;0.82;;;;;;;5.47;100.00;99672.03;5231134;28;20033;-81
2022/02/06 04:08:43;;;;;;;1.73;0.77;;;;;;;5.47;100.00;99664.28;5232353;28;20035;-79
2022/02/06 04:11:19;;;;;;;4.28;1.02;;;;;;;5.51;100.00;99658.97;5231197;28;20083;-79
2022/02/06 04:14:06;;;;;;;3.55;0.75;;;;;;;5.49;100.00;99665.06;5233115;28;20081;-79
2022/02/06 04:16:40;;;;;;;1.45;0.70;;;;;;;5.51;100.00;99660.69;5230648;28;20058;-80
2022/02/06 04:19:20;;;;;;;2.10;0.90;;;;;;;5.45;100.00;99659.16;5235260;28;20027;-80
2022/02/06 04:21:51;;;;;;;2.67;0.75;;;;;;;5.44;100.00;99654.84;5234170;28;20394;-80
2022/02/06 04:24:24;;;;;;;3.92;0.85;;;;;;;5.42;100.00;99648.03;5229626;28;20519;-81
2022/02/06 04:26:54;;;;;;;1.73;0.70;;;;;;;5.38;100.00;99649.84;5227510;28;20024;-80
2022/02/06 04:29:24;;;;;;;1.48;0.57;;;;;;;5.40;100.00;99642.88;5235893;28;20040;-80
2022/02/06 04:31:55;;;;;;;2.03;0.70;;;;;;;5.37;100.00;99631.78;5238056;28;20020;-80
2022/02/06 04:34:25;;;;;;;0.85;0.55;;;;;;;5.32;100.00;99633.63;5234720;28;20466;-80
2022/02/06 04:53:51;;;;;;;2.53;0.63;;;;;;;5.51;100.00;99606.28;5223002;28;20055;-80
2022/02/06 05:28:38;;;;;;;4.03;1.40;;;;;;;5.51;100.00;99555.31;5235093;28;20032;-81
2022/02/06 05:31:13;;;;;;;2.80;1.10;;;;;;;5.57;100.00;99543.91;5234020;28;20024;-80
2022/02/06 05:33:43;;;;;;;2.15;0.95;;;;;;;5.58;100.00;99548.19;5236522;28;20498;-81
2022/02/06 05:36:13;;;;;;;1.67;0.90;;;;;;;5.58;100.00;99553.38;5234929;28;20037;-81
2022/02/06 05:38:44;;;;;;;2.92;0.90;;;;;;;5.59;100.00;99553.31;5236999;28;20541;-80
2022/02/06 05:41:14;;;;;;;2.88;0.80;;;;;;;5.61;100.00;99542.91;5233712;28;20530;-80
2022/02/06 05:43:44;;;;;;;3.13;0.90;;;;;;;5.65;100.00;99540.19;5236090;28;20045;-80
2022/02/06 05:46:14;;;;;;;1.33;0.75;;;;;;;5.65;100.00;99545.38;5234971;28;20032;-80
2022/02/06 05:48:45;;;;;;;3.47;1.00;;;;;;;5.65;100.00;99539.31;5240562;28;20042;-80
2022/02/06 05:51:16;;;;;;;2.75;0.90;;;;;;;5.61;100.00;99520.44;5238613;28;20035;-80
2022/02/06 05:53:46;;;;;;;3.60;0.82;;;;;;;5.58;100.00;99517.13;5232792;28;20029;-80
2022/02/06 05:56:20;;;;;;;1.52;0.80;;;;;;;5.64;100.00;99522.94;5229505;28;20032;-80
2022/02/06 05:58:50;;;;;;;1.75;1.05;;;;;;;5.72;100.00;99520.09;5241625;28;20517;-81
2022/02/06 06:01:20;;;;;;;7.05;1.77;;;;;;;5.74;100.00;99516.53;5236884;28;20037;-80
2022/02/06 06:03:51;;;;;;;6.50;1.92;;;;;;;5.68;100.00;99513.31;5240989;28;20372;-80
2022/02/06 06:06:21;;;;;;;2.53;1.40;;;;;;;5.71;100.00;99508.88;5237451;28;20115;-80
2022/02/06 06:08:51;;;;;;;4.45;1.60;;;;;;;5.69;100.00;99513.25;5241453;28;20028;-80
2022/02/06 06:11:22;;;;;;;3.22;1.38;;;;;;;5.66;100.00;99509.91;5238186;28;20029;-79
2022/02/06 06:13:52;;;;;;;1.92;0.90;;;;;;;5.73;100.00;99506.25;5232520;28;20029;-79
2022/02/06 06:16:22;;;;;;;2.05;0.70;;;;;;;5.74;100.00;99506.19;5240574;28;20047;-81
2022/02/06 06:18:53;;;;;;;2.25;1.00;;;;;;;5.70;100.00;99495.97;5236500;28;20271;-79
2022/02/06 06:21:25;;;;;;;1.35;0.63;;;;;;;5.78;100.00;99499.16;5237226;28;20025;-80
2022/02/06 06:23:56;;;;;;;4.00;1.30;;;;;;;5.76;100.00;99500.97;5230909;28;20367;-80
2022/02/06 06:26:30;;;;;;;2.22;1.20;;;;;;;5.66;100.00;99495.22;5228490;28;20036;-80
2022/02/06 06:29:00;;;;;;;3.80;1.20;;;;;;;5.74;100.00;99487.19;5239791;28;20029;-79
2022/02/06 06:31:30;;;;;;;2.17;1.30;;;;;;;5.76;100.00;99490.59;5238608;28;20035;-80
2022/02/06 06:34:00;;;;;;;2.15;0.98;;;;;;;5.75;100.00;99478.53;5240070;28;20066;-80
2022/02/06 06:36:32;;;;;;;2.00;1.10;;;;;;;5.75;100.00;99484.53;5237596;28;20593;-80
2022/02/06 06:39:04;;;;;;;2.17;0.90;;;;;;;5.82;100.00;99477.44;5239737;28;20020;-79
2022/02/06 06:41:34;;;;;;;2.83;0.90;;;;;;;5.76;100.00;99475.03;5238283;28;20328;-79
2022/02/06 06:44:05;;;;;;;0.88;0.70;;;;;;;5.75;100.00;99478.53;5239385;28;20084;-80
2022/02/06 06:46:35;;;;;;;3.67;1.08;;;;;;;5.73;100.00;99469.97;5239009;28;20025;-79
2022/02/06 06:49:06;;;;;;;3.17;1.35;;;;;;;5.71;100.00;99466.56;5239457;28;20025;-79
2022/02/06 06:51:36;;;;;;;2.38;0.90;;;;;;;5.71;100.00;99464.81;5236624;28;20044;-80
2022/02/06 06:54:12;;;;;;;3.22;1.10;;;;;;;5.73;100.00;99464.78;5230064;28;20029;-80
2022/02/06 06:56:52;;;;;;;1.27;0.77;;;;;;;5.72;100.00;99452.72;5230615;28;20032;-81
2022/02/06 07:00:19;;;;;;;2.35;0.65;;;;;;;5.75;100.00;99453.44;5231317;28;20495;-80
2022/02/06 07:04:57;;;;;;;0.83;0.40;;;;;;;5.67;100.00;99450.28;5237505;28;20070;-80
2022/02/06 07:07:27;;;;;;;0.65;0.40;;;;;;;5.73;100.00;99454.41;5231137;28;20040;-80
2022/02/06 07:09:57;;;;;;;1.33;0.50;;;;;;;5.79;100.00;99439.53;5234692;28;20296;-80
2022/02/06 07:12:28;;;;;;;1.00;0.47;;;;;;;5.83;100.00;99445.44;5233267;28;20092;-80
2022/02/06 07:15:00;;;;;;;1.33;0.50;;;;;;;5.87;100.00;99442.69;5233836;28;20155;-80
2022/02/06 07:17:31;;;;;;;1.58;0.50;;;;;;;5.85;100.00;99443.63;5233846;28;20395;-80
2022/02/06 07:20:02;;;;;;;1.13;0.40;;;;;;;5.80;100.00;99442.94;5236772;28;20024;-79
2022/02/06 07:22:35;;;;;;;0.93;0.50;;;;;;;5.85;100.00;99433.25;5232342;28;20029;-80
2022/02/06 07:25:07;;;;;;;0.63;0.40;;;;;;;5.80;100.00;99445.53;5231950;28;20029;-80
2022/02/06 07:27:41;;;;;;;1.55;0.40;;;;;;;5.85;100.00;99441.91;5234923;28;20056;-80
2022/02/06 07:30:13;;;;;;;1.10;0.40;;;;;;;5.85;100.00;99435.84;5233467;28;20964;-81
2022/02/06 07:32:44;;;;;;;1.13;0.30;;;;;;;5.85;100.00;99425.47;5236547;28;20127;-80
2022/02/06 07:35:15;;;;;;;0.70;0.43;;;;;;;5.80;100.00;99423.06;5235112;28;20040;-79
2022/02/06 07:37:55;;;;;;;1.15;0.50;;;;;;;5.85;100.00;99425.47;5234439;28;20046;-80
2022/02/06 07:40:25;;;;;;;0.90;0.40;;;;;;;5.87;100.00;99415.91;5234293;28;20020;-81
2022/02/06 07:42:56;;;;;;;1.15;0.50;;;;;;;5.85;100.00;99418.56;5236096;28;20098;-79
2022/02/06 07:45:26;;;;;;;1.67;0.60;;;;;;;5.87;100.00;99421.09;5230467;28;20033;-81
2022/02/06 07:47:57;;;;;;;1.77;0.57;;;;;;;5.99;100.00;99425.84;5228672;28;20082;-80
2022/02/06 07:50:27;;;;;;;1.25;0.38;;;;;;;5.85;100.00;99418.56;5229432;28;20046;-80
2022/02/06 07:52:57;;;;;;;1.52;0.50;;;;;;;5.83;100.00;99412.59;5224859;28;20494;-80
2022/02/06 07:55:27;;;;;;;1.05;0.43;;;;;;;5.93;100.00;99411.34;5224565;28;20415;-80
2022/02/06 07:57:58;;;;;;;2.92;0.50;;;;;;;5.92;100.00;99409.66;5225481;28;20036;-81
2022/02/06 08:00:31;;;;;;;0.73;0.40;;;;;;;5.96;100.00;99400.91;5225185;28;20055;-79
2022/02/06 08:03:01;;;;;;;0.85;0.40;;;;;;;5.94;100.00;99401.84;5225828;28;20036;-83
2022/02/06 08:05:34;;;;;;;1.67;0.80;;;;;;;5.98;100.00;99391.31;5223763;28;20505;-81
2022/02/06 08:08:12;;;;;;;2.72;1.30;;;;;;;5.87;100.00;99392.56;5224239;28;20458;-80
2022/02/06 08:10:43;;;;;;;1.13;0.60;;;;;;;5.91;100.00;99392.41;5226523;28;20029;-80
2022/02/06 08:13:24;;;;;;;1.83;1.10;;;;;;;5.99;100.00;99387.81;5229271;28;20094;-81
2022/02/06 08:15:54;;;;;;;1.45;0.80;;;;;;;5.98;100.00;99377.50;5232456;28;20463;-80
2022/02/06 08:18:25;;;;;;;0.50;0.50;;;;;;;6.05;100.00;99378.97;5230439;28;20051;-80
2022/02/06 08:20:55;;;;;;;1.70;1.00;;;;;;;6.01;100.00;99375.66;5231200;28;20016;-80
2022/02/06 08:23:25;;;;;;;0.45;0.30;;;;;;;5.91;100.00;99369.09;5229505;28;20035;-81
2022/02/06 08:25:56;;;;;;;0.40;0.30;;;;;;;6.08;100.00;99364.13;5229700;28;20029;-82
2022/02/06 08:28:27;;;;;;;0.80;0.50;;;;;;;6.04;100.00;99364.28;5227485;28;20066;-79
2022/02/06 08:30:59;;;;;;;1.13;0.40;;;;;;;6.12;100.00;99350.13;5229192;28;20438;-81
2022/02/06 08:33:30;;;;;;;1.50;0.25;;;;;;;6.10;100.00;99345.94;5228699;28;20063;-81
2022/02/06 08:36:00;;;;;;;0.40;0.28;;;;;;;6.13;100.00;99336.31;5219386;28;20055;-81
2022/02/06 08:38:30;;;;;;;0.50;0.20;;;;;;;6.20;100.00;99331.69;5219637;28;20052;-82
2022/02/06 08:41:01;;;;;;;1.27;0.50;;;;;;;6.26;100.00;99331.50;5220153;28;20394;-80
2022/02/06 08:43:31;;;;;;;0.75;0.40;;;;;;;6.20;100.00;99329.97;5222597;28;20267;-78
2022/02/06 08:46:02;;;;;;;0.30;0.30;;;;;;;6.21;100.00;99318.69;5226502;28;20029;-83
2022/02/06 08:48:33;;;;;;;0.90;0.30;;;;;;;6.29;100.00;99314.03;5223918;28;20041;-81
2022/02/06 08:51:04;;;;;;;0.43;0.22;;;;;;;6.50;100.00;99312.38;5222997;28;20043;-80
2022/02/06 08:53:35;;;;;;;0.75;0.25;;;;;;;6.56;100.00;99315.56;5224075;28;20407;-80
2022/02/06 08:56:05;;;;;;;0.20;0.20;;;;;;;6.57;100.00;99311.25;5222459;28;20020;-82
2022/02/06 08:58:35;;;;;;;1.00;0.30;;;;;;;6.48;100.00;99306.41;5227603;28;20032;-80
2022/02/06 09:01:05;;;;;;;0.85;0.20;;;;;;;6.57;100.00;99306.06;5229324;28;20075;-82
2022/02/06 09:03:36;;;;;;;1.58;0.40;;;;;;;6.57;100.00;99301.69;5223056;28;20094;-80
2022/02/06 09:06:08;;;;;;;0.28;0.25;;;;;;;6.65;100.00;99293.59;5223805;28;20036;-83
2022/02/06 09:08:38;;;;;;;0.40;0.20;;;;;;;6.56;100.00;99299.16;5230083;28;20418;-81
2022/02/06 09:11:09;;;;;;;0.25;0.20;;;;;;;6.62;100.00;99288.53;5229653;28;20025;-82
2022/02/06 09:13:39;;;;;;;0.65;0.30;;;;;;;6.65;100.00;99285.81;5229764;28;20056;-82
2022/02/06 09:16:09;;;;;;;0.45;0.20;;;;;;;6.69;100.00;99295.16;5230700;28;20609;-83
2022/02/06 09:18:40;;;;;;;0.88;0.40;;;;;;;6.66;100.00;99264.13;5226112;28;20041;-79
2022/02/06 09:21:10;;;;;;;1.27;0.38;;;;;;;6.70;100.00;99260.50;5222777;28;20036;-79
2022/02/06 09:23:40;;;;;;;1.30;0.40;;;;;;;6.66;100.00;99266.72;5228825;28;20033;-79
2022/02/06 09:26:10;;;;;;;0.85;0.43;;;;;;;6.56;100.00;99263.66;5232402;28;20044;-83
2022/02/06 09:28:41;;;;;;;0.52;0.20;;;;;;;6.61;100.00;99266.09;5229566;28;20364;-79
2022/02/06 09:31:11;;;;;;;1.50;0.22;;;;;;;6.68;100.00;99251.94;5223239;28;20036;-80
2022/02/06 09:36:12;;;;;;;1.15;0.30;;;;;;;6.69;100.00;99238.03;5222353;28;20039;-83
2022/02/06 09:38:42;;;;;;;2.33;0.75;;;;;;;6.70;100.00;99227.63;5226106;28;20025;-80
2022/02/06 09:41:13;;;;;;;0.75;0.20;;;;;;;6.89;100.00;99227.66;5225689;28;20180;-84
2022/02/06 09:43:47;;;;;;;0.93;0.57;;;;;;;6.84;100.00;99229.63;5226060;28;20024;-80
2022/02/06 09:46:19;;;;;;;1.55;0.40;;;;;;;6.97;100.00;99218.66;5226771;28;20091;-83
2022/02/06 09:48:51;;;;;;;0.40;0.28;;;;;;;7.09;100.00;99206.91;5232319;28;20081;-80
2022/02/06 09:51:23;;;;;;;0.40;0.40;;;;;;;7.35;100.00;99215.25;5230800;28;20037;-83
2022/02/06 09:53:53;;;;;;;3.25;0.30;;;;;;;7.24;100.00;99204.47;5226218;28;20406;-80
2022/02/06 09:56:28;;;;;;;2.25;0.40;;;;;;;7.29;100.00;99200.75;5230636;28;20048;-80
2022/02/06 09:59:03;;;;;;;1.08;0.40;;;;;;;7.33;100.00;99191.91;5234551;28;20111;-80
2022/02/06 10:01:35;;;;;;;1.17;0.30;;;;;;;7.48;100.00;99187.78;5232413;28;20513;-80
2022/02/06 10:04:07;;;;;;;0.80;0.50;;;;;;;7.49;100.00;99172.13;5231469;28;20052;-81
2022/02/06 10:07:04;;;;;;;0.70;0.40;;;;;;;7.53;100.00;99188.44;5231549;28;20384;-80
2022/02/06 10:09:43;;;;;;;0.50;0.30;;;;;;;7.32;100.00;99179.00;5230984;28;20041;-81
2022/02/06 10:12:14;;;;;;;1.17;0.30;;;;;;;7.28;100.00;99163.63;5232713;28;20119;-79
2022/02/06 10:14:46;;;;;;;0.68;0.30;;;;;;;7.43;100.00;99161.16;5232536;28;20163;-83
2022/02/06 10:17:18;;;;;;;0.20;0.20;;;;;;;7.41;100.00;99155.19;5229894;28;20109;-79
2022/02/06 10:19:50;;;;;;;0.75;0.40;;;;;;;7.35;100.00;99142.50;5232302;28;20037;-80
2022/02/06 10:22:37;;;;;;;0.93;0.30;;;;;;;7.39;100.00;99142.25;5229065;28;20056;-79
2022/02/06 10:25:10;;;;;;;0.40;0.25;;;;;;;7.35;100.00;99138.13;5227931;28;20021;-81
2022/02/06 10:28:09;;;;;;;0.65;0.30;;;;;;;7.40;100.00;99130.97;5226563;28;20021;-80
2022/02/06 10:30:42;;;;;;;0.50;0.40;;;;;;;7.34;100.00;99126.03;5231590;28;20103;-80
2022/02/06 10:33:19;;;;;;;1.02;0.40;;;;;;;7.42;100.00;99118.75;5231979;28;20111;-80
2022/02/06 10:35:57;;;;;;;0.30;0.28;;;;;;;7.42;100.00;99123.97;5234959;28;20105;-80
2022/02/06 10:38:29;;;;;;;0.75;0.38;;;;;;;7.33;100.00;99116.56;5225982;28;20117;-79
2022/02/06 10:41:17;;;;;;;0.77;0.40;;;;;;;7.37;100.00;99112.09;5230165;28;20114;-80
2022/02/06 10:44:01;;;;;;;0.93;0.30;;;;;;;7.33;100.00;99085.38;5236931;28;20038;-80
2022/02/06 10:46:42;;;;;;;0.68;0.40;;;;;;;7.37;100.00;99079.13;5229272;28;20764;-79
2022/02/06 10:49:15;;;;;;;0.77;0.30;;;;;;;7.47;100.00;99070.00;5234051;28;20043;-80
2022/02/06 10:51:51;;;;;;;0.45;0.28;;;;;;;7.57;100.00;99066.06;5230759;28;20597;-80
2022/02/06 10:54:31;;;;;;;0.85;0.40;;;;;;;7.59;100.00;99052.97;5227241;28;20039;-80
2022/02/06 10:57:13;;;;;;;2.05;0.30;;;;;;;7.50;100.00;99056.03;5228583;28;20110;-80
2022/02/06 10:59:44;;;;;;;0.90;0.30;;;;;;;7.46;100.00;99039.72;5229136;28;20724;-80
2022/02/06 11:02:19;;;;;;;0.98;0.40;;;;;;;7.50;100.00;99015.28;5231515;28;20040;-80
2022/02/06 11:04:55;;;;;;;0.30;0.20;;;;;;;7.42;100.00;99012.22;5232777;28;20288;-80
2022/02/06 11:07:26;;;;;;;0.28;0.10;;;;;;;7.46;100.00;99011.13;5226585;28;20044;-80
2022/02/06 11:10:07;;;;;;;0.57;0.20;;;;;;;7.58;100.00;98999.31;5228645;28;20028;-80
2022/02/06 11:12:47;;;;;;;0.52;0.38;;;;;;;7.52;100.00;98990.03;5231282;28;20041;-80
2022/02/06 11:15:30;;;;;;;0.20;0.20;;;;;;;7.73;100.00;98978.59;5235367;28;20036;-80
2022/02/06 11:18:12;;;;;;;0.10;0.10;;;;;;;7.68;100.00;98970.19;5227963;28;20029;-80
2022/02/06 11:20:55;;;;;;;1.30;0.60;;;;;;;7.61;100.00;98974.00;5234098;28;20475;-83
2022/02/06 11:23:49;;;;;;;1.65;0.30;;;;;;;7.73;100.00;98956.97;5223570;28;20751;-80
2022/02/06 11:26:27;;;;;;;0.60;0.30;;;;;;;7.69;100.00;98951.06;5232636;28;20288;-81
2022/02/06 11:28:59;;;;;;;0.50;0.30;;;;;;;7.63;100.00;98935.78;5215798;28;20049;-80
2022/02/06 11:31:29;;;;;;;1.25;0.60;;;;;;;7.67;100.00;98926.91;5221222;28;20028;-80
2022/02/06 11:34:00;;;;;;;2.00;0.80;;;;;;;7.67;100.00;98932.09;5228429;28;20048;-80
2022/02/06 11:46:18;;;;;;;1.15;0.28;;;;;;;7.64;100.00;98867.28;5225268;28;20651;-80
2022/02/06 11:48:53;;;;;;;0.95;0.35;;;;;;;7.60;100.00;98857.97;5208901;28;20498;-80
2022/02/06 11:51:24;;;;;;;1.77;0.50;;;;;;;7.60;100.00;98837.16;5223865;28;20614;-80
2022/02/06 11:53:54;;;;;;;1.20;0.20;;;;;;;7.72;100.00;98836.50;5220843;28;20045;-80
2022/02/06 11:56:37;;;;;;;0.82;0.30;;;;;;;7.75;100.00;98819.94;5221551;28;20040;-80
2022/02/06 11:59:12;;;;;;;1.88;0.30;;;;;;;7.74;100.00;98823.44;5223685;28;20355;-80
2022/02/06 12:01:43;;;;;;;0.52;0.20;;;;;;;7.65;100.00;98809.16;5222920;28;20598;-80
2022/02/06 12:04:25;;;;;;;0.50;0.30;;;;;;;7.71;100.00;98803.63;5217615;28;20045;-79
2022/02/06 12:06:57;;;;;;;0.70;0.15;;;;;;;7.70;100.00;98788.97;5220115;28;20032;-81
2022/02/06 12:09:30;;;;;;;0.43;0.30;;;;;;;7.73;100.00;98793.19;5226084;28;20044;-80
2022/02/06 12:12:10;;;;;;;0.70;0.30;;;;;;;7.84;100.00;98767.47;5227657;28;20792;-80
2022/02/06 12:14:53;;;;;;;0.40;0.30;;;;;;;7.82;100.00;98764.94;5222507;28;20045;-82
2022/02/06 12:17:43;;;;;;;0.63;0.40;;;;;;;7.72;100.00;98753.31;5222814;28;20040;-80
2022/02/06 12:20:16;;;;;;;0.95;0.50;;;;;;;7.63;100.00;98743.44;5217534;28;20549;-83
2022/02/06 12:22:49;;;;;;;0.20;0.17;;;;;;;7.71;100.00;98722.22;5221568;28;20367;-81
2022/02/06 12:25:22;;;;;;;0.25;0.25;;;;;;;7.75;100.00;98721.13;5217538;28;20079;-80
2022/02/06 12:28:18;;;;;;;0.20;0.20;;;;;;;7.66;100.00;98714.66;5219695;28;20109;-81
2022/02/06 12:30:55;;;;;;;2.05;0.40;;;;;;;7.66;100.00;98709.47;5227915;28;20204;-79
2022/02/06 12:33:37;;;;;;;0.82;0.40;;;;;;;7.65;100.00;98707.78;5219160;28;20037;-80
2022/02/06 12:38:59;;;;;;;0.77;0.40;;;;;;;7.65;100.00;98689.59;5225550;28;20109;-80
2022/02/06 12:41:30;;;;;;;1.83;0.50;;;;;;;7.64;100.00;98664.53;5229806;28;20044;-80
2022/02/06 12:44:06;;;;;;;0.63;0.28;;;;;;;7.52;100.00;98670.38;5225406;28;20029;-80
2022/02/06 12:46:38;;;;;;;1.02;0.40;;;;;;;7.49;100.00;98657.56;5232382;28;20044;-80
2022/02/06 12:49:10;;;;;;;0.82;0.43;;;;;;;7.39;100.00;98645.97;5229452;28;20040;-80
2022/02/06 12:51:41;;;;;;;0.47;0.20;;;;;;;7.37;100.00;98642.63;5223369;28;20035;-80
2022/02/06 12:54:14;;;;;;;0.57;0.20;;;;;;;7.40;100.00;98637.28;5217930;28;20113;-80
2022/02/06 12:56:44;;;;;;;0.68;0.40;;;;;;;7.35;100.00;98628.06;5227063;28;20574;-80
2022/02/06 12:59:22;;;;;;;0.52;0.25;;;;;;;7.32;100.00;98617.81;5225786;28;20123;-80
2022/02/06 13:01:55;;;;;;;0.38;0.20;;;;;;;7.23;100.00;98613.09;5224957;28;20037;-80
2022/02/06 13:04:29;;;;;;;0.57;0.30;;;;;;;7.30;100.00;98599.72;5219595;28;20033;-80
2022/02/06 13:07:04;;;;;;;0.10;0.10;;;;;;;7.20;100.00;98592.50;5224372;28;20040;-80
2022/02/06 13:09:40;;;;;;;1.73;0.10;;;;;;;7.22;100.00;98573.28;5224881;28;20029;-80
2022/02/06 13:23:13;;;;;;;0.38;0.32;;;;;;;6.96;100.00;98547.03;5220828;28;20056;-79
2022/02/06 13:26:00;;;;;;;1.30;0.40;;;;;;;6.85;100.00;98538.16;5222022;28;20132;-80
2022/02/06 13:36:43;;;;;;;0.55;0.30;;;;;;;6.93;100.00;98515.25;5225944;28;20109;-79
2022/02/06 13:39:25;;;;;;;1.85;0.20;;;;;;;6.98;100.00;98514.09;5226507;28;20111;-79
2022/02/06 13:41:55;;;;;;;0.30;0.20;;;;;;;7.06;100.00;98500.66;5222094;28;20038;-79
2022/02/06 13:44:27;;;;;;;1.52;0.30;;;;;;;6.91;100.00;98501.50;5229175;28;20077;-80
2022/02/06 13:46:59;;;;;;;0.82;0.40;;;;;;;6.89;100.00;98495.53;5227753;28;20655;-80
2022/02/06 13:49:39;;;;;;;2.15;0.80;;;;;;;6.84;100.00;98484.56;5225784;28;20060;-79
2022/02/06 13:52:13;;;;;;;1.08;0.20;;;;;;;6.83;100.00;98475.13;5220380;28;20037;-79
2022/02/06 13:54:49;;;;;;;0.30;0.20;;;;;;;6.83;100.00;98485.50;5225706;28;20043;-80
2022/02/06 13:57:20;;;;;;;0.85;0.30;;;;;;;6.96;100.00;98476.94;5225034;28;20132;-79
2022/02/06 13:59:51;;;;;;;2.50;0.70;;;;;;;6.94;100.00;98472.78;5225291;28;20431;-80
2022/02/06 14:02:23;;;;;;;0.90;0.55;;;;;;;6.92;100.00;98462.47;5223344;28;20128;-79
2022/02/06 14:05:03;;;;;;;1.05;0.60;;;;;;;6.90;100.00;98466.09;5214406;28;20617;-79
2022/02/06 14:07:35;;;;;;;2.75;0.68;;;;;;;6.88;100.00;98449.72;5221985;28;20051;-79
2022/02/06 14:10:11;;;;;;;1.20;0.60;;;;;;;6.85;100.00;98453.34;5230667;28;20025;-80
2022/02/06 14:12:56;;;;;;;0.82;0.50;;;;;;;6.89;100.00;98452.25;5230351;28;20106;-80
2022/02/06 14:15:29;;;;;;;3.42;0.98;;;;;;;6.91;100.00;98439.22;5224346;28;20086;-80
2022/02/06 14:18:07;;;;;;;2.55;1.00;;;;;;;6.93;100.00;98433.00;5209909;28;20036;-79
2022/02/06 14:20:41;;;;;;;1.17;0.63;;;;;;;6.74;100.00;98427.13;5225813;28;20140;-80
2022/02/06 14:23:16;;;;;;;1.60;1.00;;;;;;;6.79;100.00;98447.66;5220529;28;20453;-80
2022/02/06 14:25:46;;;;;;;1.83;0.70;;;;;;;6.75;100.00;98444.38;5233046;28;20051;-79
2022/02/06 14:28:18;;;;;;;1.10;0.40;;;;;;;6.83;100.00;98425.78;5229676;28;20498;-79
2022/02/06 14:30:48;;;;;;;1.20;0.40;;;;;;;6.84;100.00;98437.84;5231198;28;20044;-79
2022/02/06 14:33:24;;;;;;;0.95;0.50;;;;;;;6.78;100.00;98435.59;5227545;28;20403;-80
2022/02/06 14:35:57;;;;;;;;;;;;;;;6.78;100.00;98438.19;5227191;28;20045;-79
2022/02/06 14:38:58;;;;;;;3.08;1.00;;;;;;;6.79;100.00;98437.28;5229357;28;19913;-80